Austinburg, Ohio
Current Conditions -  °F | °C
As of 6:53 PM on Saturday 22 Nov 2014 (Local Time) from KHZY Reporting Station
Overcast Overcast  
Wind Chill: 34°   Ceiling: 3100
Heat Index: 41°   Visibility: 10mi
Dew Point: 35°   Wind: 12mph
Humidity: 79%   Direction: 200°SSW
Pressure: 30.05"   Gusts: NA
Location:  41.77°N, 80.85°W
Report Text: KHZY 222353Z AUTO 20010KT 10SM OVC031 05/02 A3005 RMK AO2 SLP185 60000 T00500017 10056 20022 58004
Loading
Personal Weather Stations






























Interactive Weather Map New forecast layout! Learn more

10-Day Weather Forecast

Advertisements
Track Severe Weather on mobile